Time;durP1;ratioP1;P1;durP2;ratioP2;P2;SDS_P1;SDS_P2;PMS_P1;PMS_P2;Temp;Humidity;BMP_temperature;BMP_pressure;BME280_temperature;BME280_humidity;BME280_pressure;Samples;Min_cycle;Max_cycle;Signal;HPM_P1;HPM_P2
2021/12/01 00:01:05;;;;;;;12.43;3.90;;;5.50;99.90;;;;;;4914887;29;20507;-64
2021/12/01 00:03:34;;;;;;;13.63;4.70;;;5.50;99.90;;;;;;4916618;29;20236;-64
2021/12/01 00:06:03;;;;;;;16.17;5.10;;;5.50;99.90;;;;;;4916796;29;20472;-61
2021/12/01 00:08:33;;;;;;;17.10;5.43;;;5.50;99.90;;;;;;4920370;29;20239;-64
2021/12/01 00:11:02;;;;;;;14.70;5.17;;;5.40;99.90;;;;;;4919351;29;20901;-63
2021/12/01 00:13:32;;;;;;;17.37;5.77;;;5.40;99.90;;;;;;4916564;29;20487;-63
2021/12/01 00:16:06;;;;;;;17.57;6.70;;;5.50;99.90;;;;;;4914555;29;20481;-64
2021/12/01 00:18:34;;;;;;;13.77;5.97;;;5.50;99.90;;;;;;4913009;29;20676;-63
2021/12/01 00:21:03;;;;;;;17.93;6.77;;;5.40;99.90;;;;;;4912129;29;20828;-63
2021/12/01 00:23:31;;;;;;;17.27;6.87;;;5.40;99.90;;;;;;4915829;29;21034;-64
2021/12/01 00:26:00;;;;;;;16.27;6.40;;;5.40;99.90;;;;;;4925158;29;20986;-64
2021/12/01 00:28:29;;;;;;;19.50;7.33;;;5.40;99.90;;;;;;4914514;29;20848;-63
2021/12/01 00:31:00;;;;;;;18.67;8.03;;;5.40;99.90;;;;;;4918124;29;20491;-63
2021/12/01 00:33:31;;;;;;;21.27;7.90;;;5.40;99.90;;;;;;4915736;29;20778;-64
2021/12/01 00:35:59;;;;;;;15.97;7.80;;;5.50;99.90;;;;;;4915850;29;20495;-63
2021/12/01 00:38:29;;;;;;;17.30;8.20;;;5.40;99.90;;;;;;4914877;29;20251;-63
2021/12/01 00:40:58;;;;;;;15.57;7.27;;;5.50;99.90;;;;;;4914476;29;20232;-63
2021/12/01 00:43:26;;;;;;;17.57;8.10;;;5.40;99.90;;;;;;4913965;29;20271;-63
2021/12/01 00:45:57;;;;;;;15.87;7.70;;;5.50;99.90;;;;;;4913827;29;20264;-63
2021/12/01 00:48:26;;;;;;;19.17;8.10;;;5.50;99.90;;;;;;4910940;29;20483;-64
2021/12/01 00:50:57;;;;;;;17.53;7.63;;;5.50;99.90;;;;;;4920271;29;20875;-64
2021/12/01 00:53:25;;;;;;;18.57;7.53;;;5.50;99.90;;;;;;4914339;29;20484;-64
2021/12/01 00:55:54;;;;;;;16.20;7.70;;;5.50;99.90;;;;;;4919515;29;20838;-64
2021/12/01 00:58:23;;;;;;;12.83;7.40;;;5.50;99.90;;;;;;4917569;29;20715;-63
2021/12/01 01:00:51;;;;;;;15.57;7.93;;;5.50;99.90;;;;;;4919099;29;20473;-63
2021/12/01 01:03:20;;;;;;;17.50;7.27;;;5.50;99.90;;;;;;4920758;29;20480;-63
2021/12/01 01:05:49;;;;;;;17.53;8.07;;;5.50;99.90;;;;;;4919728;29;20489;-64
2021/12/01 01:08:19;;;;;;;16.83;7.73;;;5.50;99.90;;;;;;4912729;29;20544;-64
2021/12/01 01:16:24;;;;;;;12.00;7.43;;;5.60;99.90;;;;;;4914004;29;20263;-63
2021/12/01 01:18:56;;;;;;;17.10;7.63;;;5.60;99.90;;;;;;4913227;29;20328;-63
2021/12/01 01:21:27;;;;;;;14.43;7.10;;;5.60;99.90;;;;;;4916795;29;20487;-64
2021/12/01 01:23:58;;;;;;;13.63;7.17;;;5.60;99.90;;;;;;4913179;29;20367;-64
2021/12/01 01:26:27;;;;;;;13.13;6.87;;;5.60;99.90;;;;;;4916923;29;20251;-64
2021/12/01 01:28:56;;;;;;;14.13;6.53;;;5.60;99.90;;;;;;4913147;29;20231;-64
2021/12/01 01:31:24;;;;;;;11.40;6.93;;;5.60;99.90;;;;;;4909174;29;20291;-63
2021/12/01 01:33:53;;;;;;;13.20;6.13;;;5.60;99.90;;;;;;4911388;29;20231;-63
2021/12/01 01:36:21;;;;;;;9.27;6.23;;;5.60;99.90;;;;;;4913141;29;20311;-63
2021/12/01 01:38:50;;;;;;;10.50;6.03;;;5.70;99.90;;;;;;4914699;29;20702;-63
2021/12/01 01:41:21;;;;;;;10.87;6.37;;;5.70;99.90;;;;;;4914448;29;20294;-64
2021/12/01 01:43:51;;;;;;;11.10;5.47;;;5.70;99.90;;;;;;4916219;29;20578;-64
2021/12/01 01:46:20;;;;;;;9.23;6.17;;;5.70;99.90;;;;;;4919220;29;20579;-63
2021/12/01 01:48:52;;;;;;;9.83;5.80;;;5.70;99.90;;;;;;4912734;29;20256;-63
2021/12/01 01:51:25;;;;;;;12.77;6.07;;;5.70;99.90;;;;;;4917100;29;20525;-63
2021/12/01 01:53:56;;;;;;;10.87;6.20;;;5.70;99.90;;;;;;4915826;29;20243;-63
2021/12/01 01:56:27;;;;;;;8.37;5.77;;;5.70;99.90;;;;;;4916464;29;20244;-63
2021/12/01 01:58:56;;;;;;;11.23;5.90;;;5.70;99.90;;;;;;4917823;29;20724;-64
2021/12/01 02:04:13;;;;;;;10.33;5.97;;;5.70;99.90;;;;;;4916343;29;20243;-63
2021/12/01 02:06:41;;;;;;;9.00;6.03;;;5.70;99.90;;;;;;4910130;29;20643;-63
2021/12/01 02:09:10;;;;;;;8.27;5.87;;;5.70;99.90;;;;;;4905242;29;20243;-63
2021/12/01 02:11:40;;;;;;;7.37;5.57;;;5.70;99.90;;;;;;4927537;29;20229;-63
2021/12/01 02:14:09;;;;;;;7.20;5.90;;;5.80;99.90;;;;;;4917495;29;20239;-63
2021/12/01 02:16:38;;;;;;;8.17;5.80;;;5.80;99.90;;;;;;4916783;29;20244;-64
2021/12/01 02:19:07;;;;;;;6.83;5.57;;;5.80;99.90;;;;;;4913514;29;20247;-64
2021/12/01 02:21:37;;;;;;;9.50;5.63;;;5.80;99.90;;;;;;4919500;29;20283;-64
2021/12/01 02:24:07;;;;;;;6.77;5.10;;;5.80;99.90;;;;;;4924545;29;20323;-63
2021/12/01 02:26:38;;;;;;;8.10;6.23;;;5.80;99.90;;;;;;4923305;29;20288;-63
2021/12/01 02:29:09;;;;;;;8.90;5.13;;;5.90;99.90;;;;;;4924366;29;20246;-63
2021/12/01 02:31:38;;;;;;;6.17;5.30;;;5.90;99.90;;;;;;4918622;29;20243;-64
2021/12/01 02:34:08;;;;;;;7.13;4.57;;;5.90;99.90;;;;;;4914422;29;20319;-64
2021/12/01 02:36:39;;;;;;;6.63;4.73;;;5.90;99.90;;;;;;4923046;29;20599;-63
2021/12/01 02:39:11;;;;;;;6.33;4.60;;;6.00;99.90;;;;;;4916907;29;20823;-63
2021/12/01 02:41:39;;;;;;;5.00;4.17;;;6.00;99.90;;;;;;4915260;29;20303;-63
2021/12/01 02:44:10;;;;;;;5.93;4.00;;;5.90;99.90;;;;;;4922228;29;20504;-64
2021/12/01 02:46:39;;;;;;;5.80;4.13;;;5.90;99.90;;;;;;4909585;29;20487;-63
2021/12/01 02:49:08;;;;;;;4.33;3.93;;;5.90;99.90;;;;;;4916485;29;20250;-63
2021/12/01 02:51:38;;;;;;;3.80;3.33;;;6.00;99.90;;;;;;4916881;29;20724;-63
2021/12/01 02:54:07;;;;;;;5.70;3.63;;;5.90;99.90;;;;;;4917276;29;20236;-63
2021/12/01 02:56:38;;;;;;;4.90;3.23;;;6.00;99.90;;;;;;4919050;29;20783;-63
2021/12/01 02:59:07;;;;;;;4.57;3.43;;;6.00;99.90;;;;;;4915687;29;20475;-64
2021/12/01 03:01:36;;;;;;;3.50;3.13;;;6.00;99.90;;;;;;4914658;29;20270;-63
2021/12/01 03:04:05;;;;;;;4.20;3.73;;;6.00;99.90;;;;;;4920932;29;20554;-63
2021/12/01 03:06:35;;;;;;;4.10;3.23;;;6.00;99.90;;;;;;4921859;29;20634;-63
2021/12/01 03:09:06;;;;;;;4.40;3.30;;;6.00;99.90;;;;;;4919942;29;20244;-64
2021/12/01 03:11:36;;;;;;;4.40;3.53;;;6.00;99.90;;;;;;4919858;29;20713;-64
2021/12/01 03:14:08;;;;;;;3.90;3.50;;;6.00;99.90;;;;;;4916180;29;20561;-64
2021/12/01 03:16:37;;;;;;;6.17;3.03;;;6.10;99.90;;;;;;4919103;29;20331;-64
2021/12/01 03:19:05;;;;;;;3.90;3.50;;;6.10;99.90;;;;;;4917507;29;20280;-63
2021/12/01 03:21:37;;;;;;;3.60;3.30;;;6.10;99.90;;;;;;4912065;29;20287;-64
2021/12/01 03:24:08;;;;;;;4.30;3.53;;;6.10;99.90;;;;;;4924448;29;20258;-64
2021/12/01 03:26:37;;;;;;;4.60;3.63;;;6.10;99.90;;;;;;4916793;29;20232;-64
2021/12/01 03:29:08;;;;;;;3.87;3.47;;;6.10;99.90;;;;;;4914830;29;20249;-63
2021/12/01 03:31:37;;;;;;;3.83;3.30;;;6.20;99.90;;;;;;4917327;29;20241;-63
2021/12/01 03:34:05;;;;;;;4.70;3.90;;;6.10;99.90;;;;;;4921794;29;20235;-64
2021/12/01 03:36:34;;;;;;;4.50;3.87;;;6.20;99.90;;;;;;4917803;29;20713;-64
2021/12/01 03:39:04;;;;;;;4.33;3.93;;;6.20;99.90;;;;;;4924780;29;20243;-63
2021/12/01 03:41:34;;;;;;;3.97;3.57;;;6.20;99.90;;;;;;4919245;29;20492;-63
2021/12/01 03:44:03;;;;;;;5.00;3.90;;;6.20;99.90;;;;;;4920379;29;20232;-63
2021/12/01 03:46:31;;;;;;;4.47;3.83;;;6.20;99.90;;;;;;4918622;29;20251;-63
2021/12/01 03:49:00;;;;;;;4.13;3.73;;;6.20;99.90;;;;;;4914233;29;20247;-64
2021/12/01 03:51:28;;;;;;;4.70;3.93;;;6.20;99.90;;;;;;4912638;29;20291;-63
2021/12/01 03:53:56;;;;;;;4.40;4.00;;;6.20;99.90;;;;;;4917766;29;20802;-64
2021/12/01 03:56:25;;;;;;;4.20;3.80;;;6.30;99.90;;;;;;4916052;29;20713;-63
2021/12/01 03:58:55;;;;;;;4.20;3.90;;;6.30;99.90;;;;;;4925608;29;20272;-63
2021/12/01 04:01:24;;;;;;;4.47;4.07;;;6.30;99.90;;;;;;4917694;29;20304;-64
2021/12/01 04:03:52;;;;;;;5.20;4.70;;;6.30;99.90;;;;;;4912922;29;20260;-64
2021/12/01 04:06:20;;;;;;;5.20;4.13;;;6.30;99.90;;;;;;4914807;29;20756;-63
2021/12/01 04:08:49;;;;;;;4.53;4.13;;;6.40;99.90;;;;;;4918766;29;20549;-64
2021/12/01 04:11:17;;;;;;;5.10;4.60;;;6.40;99.90;;;;;;4918527;29;20245;-63
2021/12/01 04:13:45;;;;;;;4.90;4.47;;;6.40;99.90;;;;;;4919368;29;20240;-64
2021/12/01 04:16:15;;;;;;;5.73;5.23;;;6.40;99.90;;;;;;4914859;29;20308;-63
2021/12/01 04:18:44;;;;;;;5.70;5.10;;;6.50;99.90;;;;;;4922733;29;20486;-64
2021/12/01 04:21:12;;;;;;;6.10;5.30;;;6.50;99.90;;;;;;4915860;29;20295;-63
2021/12/01 04:23:40;;;;;;;6.30;5.70;;;6.60;99.90;;;;;;4910402;29;20685;-63
2021/12/01 04:26:12;;;;;;;6.93;6.23;;;6.60;99.90;;;;;;4913949;29;20236;-63
2021/12/01 04:28:40;;;;;;;6.07;5.47;;;6.60;99.90;;;;;;4917142;29;20806;-63
2021/12/01 04:31:09;;;;;;;8.75;7.85;;;6.60;99.90;;;;;;4916817;29;20477;-63
2021/12/01 04:33:38;;;;;;;7.07;6.37;;;6.60;99.90;;;;;;4915807;29;20240;-63
2021/12/01 04:36:10;;;;;;;7.93;6.43;;;6.70;99.90;;;;;;4918145;29;20692;-64
2021/12/01 04:38:39;;;;;;;7.63;6.63;;;6.70;99.90;;;;;;4914216;29;20228;-63
2021/12/01 04:41:08;;;;;;;7.63;6.83;;;6.70;99.90;;;;;;4913070;29;20986;-64
2021/12/01 04:43:37;;;;;;;8.00;6.63;;;6.80;99.90;;;;;;4913335;29;20232;-63
2021/12/01 04:46:06;;;;;;;7.63;6.80;;;6.80;99.90;;;;;;4914093;29;20243;-63
2021/12/01 04:48:34;;;;;;;7.07;6.37;;;6.80;99.90;;;;;;4911341;29;20263;-64
2021/12/01 04:51:06;;;;;;;10.63;7.20;;;6.80;99.90;;;;;;4915316;29;20244;-63
2021/12/01 04:53:34;;;;;;;8.63;7.73;;;6.90;99.90;;;;;;4918401;29;20299;-63
2021/12/01 04:56:02;;;;;;;8.10;7.23;;;6.90;99.90;;;;;;4912028;29;20300;-63
2021/12/01 04:58:30;;;;;;;9.57;8.10;;;6.90;99.90;;;;;;4916767;29;20749;-63
2021/12/01 05:00:59;;;;;;;8.83;7.93;;;7.00;99.90;;;;;;4915807;29;20295;-63
2021/12/01 05:03:29;;;;;;;9.00;7.87;;;7.00;99.90;;;;;;4913460;29;20233;-63
2021/12/01 05:05:58;;;;;;;9.87;8.50;;;7.10;99.90;;;;;;4908502;29;20275;-63
2021/12/01 05:08:28;;;;;;;10.93;8.03;;;7.10;99.90;;;;;;4914510;29;20361;-64
2021/12/01 05:10:56;;;;;;;10.00;8.70;;;7.10;99.90;;;;;;4917197;29;20236;-63
2021/12/01 05:13:24;;;;;;;10.30;8.77;;;7.10;99.90;;;;;;4913615;29;20244;-63
2021/12/01 05:15:53;;;;;;;10.43;9.10;;;7.20;99.90;;;;;;4917889;29;20234;-63
2021/12/01 05:18:21;;;;;;;13.97;10.17;;;7.20;99.90;;;;;;4914623;29;20250;-64
2021/12/01 05:20:49;;;;;;;12.97;9.97;;;7.30;99.90;;;;;;4915361;29;20241;-63
2021/12/01 05:23:17;;;;;;;13.53;10.60;;;7.30;99.90;;;;;;4915440;29;20644;-63
2021/12/01 05:25:48;;;;;;;15.07;11.00;;;7.30;99.90;;;;;;4908934;29;20795;-63
2021/12/01 05:28:16;;;;;;;15.77;11.13;;;7.50;99.90;;;;;;4916140;29;20299;-64
2021/12/01 05:30:45;;;;;;;14.10;10.67;;;7.50;99.90;;;;;;4914841;29;20326;-63
2021/12/01 05:33:15;;;;;;;14.43;11.27;;;7.60;99.90;;;;;;4913459;29;20339;-63
2021/12/01 05:35:46;;;;;;;16.00;12.03;;;7.70;99.90;;;;;;4914873;29;20299;-63
2021/12/01 05:38:15;;;;;;;15.03;12.37;;;7.80;99.90;;;;;;4916839;29;20249;-64
2021/12/01 05:40:43;;;;;;;15.37;12.57;;;7.80;99.90;;;;;;4914692;29;20275;-63
2021/12/01 05:43:13;;;;;;;15.80;12.53;;;7.90;99.90;;;;;;4918381;29;20294;-64
2021/12/01 05:45:42;;;;;;;15.03;12.20;;;7.90;99.90;;;;;;4918652;29;20339;-63
2021/12/01 05:48:11;;;;;;;14.47;11.17;;;8.00;99.90;;;;;;4915294;29;20713;-63
2021/12/01 05:50:39;;;;;;;12.03;9.77;;;8.20;99.90;;;;;;4915552;29;20785;-63
2021/12/01 05:53:09;;;;;;;12.03;9.97;;;8.20;99.90;;;;;;4911296;29;20244;-63
2021/12/01 05:55:39;;;;;;;9.00;7.13;;;8.20;99.90;;;;;;4914562;29;21022;-63
2021/12/01 05:58:07;;;;;;;9.83;7.47;;;8.30;99.90;;;;;;4917429;29;20243;-63
2021/12/01 06:00:37;;;;;;;9.53;7.30;;;8.30;99.90;;;;;;4911586;29;20589;-63
2021/12/01 06:03:05;;;;;;;7.87;6.53;;;8.50;99.90;;;;;;4911778;29;20236;-64
2021/12/01 06:05:33;;;;;;;7.33;6.17;;;8.40;99.90;;;;;;4911637;29;20239;-63
2021/12/01 06:08:02;;;;;;;7.73;6.23;;;8.40;99.90;;;;;;4918788;29;20247;-64
2021/12/01 06:10:30;;;;;;;6.43;5.83;;;8.40;99.90;;;;;;4913143;29;20296;-63
2021/12/01 06:12:58;;;;;;;7.30;6.50;;;8.50;99.90;;;;;;4919169;29;20255;-64
2021/12/01 06:15:27;;;;;;;6.50;5.77;;;8.50;99.90;;;;;;4912231;29;20308;-63
2021/12/01 06:17:58;;;;;;;6.43;5.77;;;8.50;99.90;;;;;;4918440;29;20323;-63
2021/12/01 06:20:27;;;;;;;9.20;5.77;;;8.50;99.90;;;;;;4919023;29;20578;-64
2021/12/01 06:22:55;;;;;;;6.27;5.67;;;8.60;99.90;;;;;;4916875;29;20263;-62
2021/12/01 06:25:23;;;;;;;7.17;6.03;;;8.60;99.90;;;;;;4918711;29;20239;-61
2021/12/01 06:27:54;;;;;;;5.80;5.20;;;8.60;99.90;;;;;;4919963;29;20232;-61
2021/12/01 06:30:22;;;;;;;6.67;5.47;;;8.60;99.90;;;;;;4918805;29;20256;-62
2021/12/01 06:32:51;;;;;;;6.43;5.67;;;8.60;99.90;;;;;;4919755;29;20244;-61
2021/12/01 06:35:21;;;;;;;5.67;5.07;;;8.60;99.90;;;;;;4924542;29;20232;-61
2021/12/01 06:37:50;;;;;;;6.17;5.57;;;8.60;99.90;;;;;;4923930;29;20767;-61
2021/12/01 06:40:18;;;;;;;5.97;5.30;;;8.70;99.90;;;;;;4920124;29;20260;-62
2021/12/01 06:42:47;;;;;;;5.40;4.90;;;8.70;99.90;;;;;;4915003;29;20701;-61
2021/12/01 06:45:16;;;;;;;5.73;4.90;;;8.60;99.90;;;;;;4917433;29;20486;-62
2021/12/01 06:47:45;;;;;;;6.53;5.13;;;8.70;99.90;;;;;;4920790;29;20249;-61
2021/12/01 06:50:14;;;;;;;5.87;5.27;;;8.70;99.90;;;;;;4920062;29;20260;-61
2021/12/01 06:52:44;;;;;;;6.70;6.00;;;8.70;99.90;;;;;;4917845;29;20244;-61
2021/12/01 06:55:13;;;;;;;7.37;6.13;;;8.70;99.90;;;;;;4920777;29;20240;-62
2021/12/01 06:57:41;;;;;;;7.57;6.70;;;8.70;99.90;;;;;;4918234;29;20260;-62
2021/12/01 07:00:14;;;;;;;7.20;5.77;;;8.70;99.90;;;;;;4922365;29;20359;-62
2021/12/01 07:02:43;;;;;;;7.63;6.33;;;8.70;99.90;;;;;;4917688;29;20657;-61
2021/12/01 07:05:12;;;;;;;6.23;5.63;;;8.70;99.90;;;;;;4925692;29;20323;-62
2021/12/01 07:07:40;;;;;;;6.67;6.07;;;8.70;99.90;;;;;;4915346;29;20237;-61
2021/12/01 07:10:12;;;;;;;7.67;6.13;;;8.70;99.90;;;;;;4920091;29;20236;-62
2021/12/01 07:12:41;;;;;;;7.03;6.43;;;8.70;99.90;;;;;;4914734;29;20232;-62
2021/12/01 07:15:11;;;;;;;6.73;6.03;;;8.60;99.90;;;;;;4917508;29;20306;-62
2021/12/01 07:17:40;;;;;;;6.47;5.87;;;8.60;99.90;;;;;;4922428;29;20240;-62
2021/12/01 07:20:10;;;;;;;6.47;5.77;;;8.70;99.90;;;;;;4920773;29;20242;-62
2021/12/01 07:22:39;;;;;;;6.53;5.93;;;8.60;99.90;;;;;;4912935;29;20233;-62
2021/12/01 07:25:07;;;;;;;6.67;6.07;;;8.60;99.90;;;;;;4917155;29;20247;-61
2021/12/01 07:27:37;;;;;;;6.23;5.67;;;8.60;99.90;;;;;;4915959;29;20276;-62
2021/12/01 07:30:06;;;;;;;6.53;5.90;;;8.70;99.90;;;;;;4911867;29;20244;-61
2021/12/01 07:32:35;;;;;;;6.00;5.50;;;8.60;99.90;;;;;;4920250;29;20486;-62
2021/12/01 07:35:05;;;;;;;6.20;5.60;;;8.60;99.90;;;;;;4919919;29;20237;-61
2021/12/01 07:37:33;;;;;;;6.07;5.50;;;8.60;99.90;;;;;;4915950;29;20295;-61
2021/12/01 07:40:01;;;;;;;5.57;5.00;;;8.60;99.90;;;;;;4913670;29;20263;-62
2021/12/01 07:42:30;;;;;;;5.90;5.30;;;8.60;99.90;;;;;;4920751;29;20311;-62
2021/12/01 07:45:08;;;;;;;6.37;5.77;;;8.60;99.90;;;;;;4917212;29;20243;-62
2021/12/01 07:47:37;;;;;;;5.20;4.70;;;8.60;99.90;;;;;;4918979;29;20235;-62
2021/12/01 07:50:07;;;;;;;4.70;4.30;;;8.50;99.90;;;;;;4913055;29;20618;-61
2021/12/01 07:52:36;;;;;;;5.93;5.43;;;8.50;99.90;;;;;;4914175;29;20237;-62
2021/12/01 07:55:05;;;;;;;5.80;4.93;;;8.50;99.90;;;;;;4911868;29;20303;-61
2021/12/01 07:57:33;;;;;;;5.67;5.17;;;8.50;99.90;;;;;;4912711;29;20280;-61
2021/12/01 08:00:04;;;;;;;6.63;6.03;;;8.50;99.90;;;;;;4910924;29;20733;-62
2021/12/01 08:02:56;;;;;;;5.60;5.10;;;8.50;99.90;;;;;;4905321;29;20809;-61
2021/12/01 08:05:25;;;;;;;6.90;6.20;;;8.50;99.90;;;;;;4911523;29;20245;-61
2021/12/01 08:07:55;;;;;;;6.30;5.70;;;8.50;99.90;;;;;;4920843;29;20251;-61
2021/12/01 08:10:23;;;;;;;7.60;6.90;;;8.50;99.90;;;;;;4917974;29;20247;-62
2021/12/01 08:12:52;;;;;;;7.73;6.93;;;8.40;99.90;;;;;;4917583;29;20268;-61
2021/12/01 08:15:25;;;;;;;8.77;8.00;;;8.50;99.90;;;;;;4910024;29;20252;-61
2021/12/01 08:17:53;;;;;;;9.60;8.70;;;8.40;99.90;;;;;;4917927;29;20245;-61
2021/12/01 08:20:22;;;;;;;9.50;8.70;;;8.40;99.90;;;;;;4923282;29;20244;-61
2021/12/01 08:22:50;;;;;;;10.57;9.67;;;8.40;99.90;;;;;;4917182;29;20254;-61
2021/12/01 08:25:18;;;;;;;11.10;10.00;;;8.40;99.90;;;;;;4915730;29;20248;-61
2021/12/01 08:27:47;;;;;;;10.93;9.97;;;8.40;99.90;;;;;;4910849;29;20609;-62
2021/12/01 08:30:15;;;;;;;11.40;10.43;;;8.40;99.90;;;;;;4910600;29;20347;-61
2021/12/01 08:32:46;;;;;;;10.83;9.93;;;8.40;99.90;;;;;;4909430;29;20242;-61
2021/12/01 08:35:15;;;;;;;11.63;10.73;;;8.40;99.90;;;;;;4913864;29;20792;-61
2021/12/01 08:37:43;;;;;;;12.17;11.17;;;8.40;99.90;;;;;;4916931;29;20593;-61
2021/12/01 08:40:14;;;;;;;12.30;11.27;;;8.40;99.90;;;;;;4917980;29;20241;-61
2021/12/01 08:42:46;;;;;;;11.50;10.47;;;8.40;99.90;;;;;;4906404;29;20762;-61
2021/12/01 08:45:17;;;;;;;11.83;10.83;;;8.40;99.90;;;;;;4915021;29;20237;-61
2021/12/01 08:47:48;;;;;;;10.80;9.90;;;8.40;99.90;;;;;;4909223;29;20244;-62
2021/12/01 08:50:16;;;;;;;11.20;10.30;;;8.40;99.90;;;;;;4908400;29;20311;-61
2021/12/01 08:52:45;;;;;;;10.33;9.47;;;8.30;99.90;;;;;;4913857;29;20248;-61
2021/12/01 08:55:13;;;;;;;10.80;9.70;;;8.40;99.90;;;;;;4909104;29;20271;-61
2021/12/01 08:58:02;;;;;;;9.50;8.70;;;8.30;99.90;;;;;;4905363;29;20255;-62
2021/12/01 09:00:33;;;;;;;10.40;9.50;;;8.30;99.90;;;;;;4915859;29;20239;-61
2021/12/01 09:03:02;;;;;;;10.60;9.60;;;8.30;99.90;;;;;;4916781;29;20240;-61
2021/12/01 09:05:30;;;;;;;10.10;9.20;;;8.30;99.90;;;;;;4919874;29;20720;-61
2021/12/01 09:07:59;;;;;;;9.27;8.43;;;8.30;99.90;;;;;;4910658;29;20276;-61
2021/12/01 09:10:27;;;;;;;9.40;8.60;;;8.30;99.90;;;;;;4917167;29;20239;-62
2021/12/01 09:12:55;;;;;;;9.00;8.20;;;8.30;99.90;;;;;;4904377;29;20260;-61
2021/12/01 09:15:23;;;;;;;9.30;8.50;;;8.30;99.90;;;;;;4911631;29;20252;-61
2021/12/01 09:17:51;;;;;;;8.83;7.93;;;8.30;99.90;;;;;;4911343;29;20247;-61
2021/12/01 09:20:21;;;;;;;8.90;8.20;;;8.30;99.90;;;;;;4915720;29;20239;-62
2021/12/01 09:22:49;;;;;;;8.87;8.17;;;8.30;99.90;;;;;;4913520;29;20725;-62
2021/12/01 09:25:17;;;;;;;8.73;8.03;;;8.30;99.90;;;;;;4900432;29;20585;-61
2021/12/01 09:27:49;;;;;;;10.97;10.10;;;8.40;99.90;;;;;;4915789;29;20251;-61
2021/12/01 09:30:18;;;;;;;10.93;10.03;;;8.40;99.90;;;;;;4909007;29;20768;-62
2021/12/01 09:32:47;;;;;;;7.97;7.27;;;8.40;99.90;;;;;;4915335;29;20302;-61
2021/12/01 09:35:16;;;;;;;8.23;7.63;;;8.40;99.90;;;;;;4917429;29;20224;-61
2021/12/01 09:37:45;;;;;;;7.27;6.77;;;8.40;99.90;;;;;;4912778;29;20328;-61
2021/12/01 09:40:17;;;;;;;7.33;6.77;;;8.40;99.90;;;;;;4925646;29;20250;-61
2021/12/01 09:42:48;;;;;;;6.60;6.10;;;8.40;99.90;;;;;;4911457;29;20244;-62
2021/12/01 09:45:18;;;;;;;7.47;6.87;;;8.40;99.90;;;;;;4911210;29;20252;-62
2021/12/01 09:47:46;;;;;;;7.13;6.53;;;8.30;99.90;;;;;;4913677;29;20273;-63
2021/12/01 09:50:15;;;;;;;6.63;6.03;;;8.40;99.90;;;;;;4913052;29;20268;-63
2021/12/01 09:52:45;;;;;;;6.20;5.70;;;8.30;99.90;;;;;;4914729;29;20271;-63
2021/12/01 09:55:16;;;;;;;6.53;6.03;;;8.30;99.90;;;;;;4920015;29;20714;-63
2021/12/01 09:58:04;;;;;;;5.87;5.47;;;8.30;99.90;;;;;;4908391;29;20244;-63
2021/12/01 10:00:34;;;;;;;6.43;5.93;;;8.30;99.90;;;;;;4909786;29;20332;-63
2021/12/01 10:03:03;;;;;;;5.80;5.40;;;8.30;99.90;;;;;;4911355;29;20245;-64
2021/12/01 10:05:48;;;;;;;6.00;5.50;;;8.30;99.90;;;;;;4913434;29;20752;-63
2021/12/01 10:08:21;;;;;;;5.37;4.97;;;8.30;99.90;;;;;;4914598;29;20846;-63
2021/12/01 10:10:50;;;;;;;4.90;4.60;;;8.40;99.90;;;;;;4912585;29;20537;-63
2021/12/01 10:13:25;;;;;;;8.80;4.43;;;8.30;99.90;;;;;;4912261;29;20589;-63
2021/12/01 10:15:55;;;;;;;4.80;4.40;;;8.30;99.90;;;;;;4916685;29;20322;-63
2021/12/01 10:18:23;;;;;;;4.20;3.90;;;8.30;99.90;;;;;;4916268;29;20618;-63
2021/12/01 10:21:04;;;;;;;4.80;4.50;;;8.40;99.90;;;;;;4917174;29;20712;-63
2021/12/01 10:23:35;;;;;;;4.20;3.90;;;8.50;99.90;;;;;;4918101;29;20264;-63
2021/12/01 10:26:12;;;;;;;4.37;4.07;;;8.50;99.90;;;;;;4916657;29;20807;-64
2021/12/01 10:28:42;;;;;;;4.43;4.13;;;8.40;99.90;;;;;;4911983;29;20643;-64
2021/12/01 10:31:12;;;;;;;4.07;3.67;;;8.40;99.90;;;;;;4912994;29;20240;-63
2021/12/01 10:33:41;;;;;;;3.87;3.57;;;8.40;99.90;;;;;;4917280;29;20244;-63
2021/12/01 10:36:11;;;;;;;3.47;3.20;;;8.40;99.90;;;;;;4927620;29;20434;-63
2021/12/01 10:38:45;;;;;;;3.50;3.20;;;8.40;99.90;;;;;;4914955;29;20634;-64
2021/12/01 10:41:16;;;;;;;3.70;3.40;;;8.40;99.90;;;;;;4913181;29;20236;-63
2021/12/01 10:43:47;;;;;;;3.00;2.80;;;8.40;99.90;;;;;;4913611;29;20322;-64
2021/12/01 10:46:18;;;;;;;9.13;8.33;;;8.40;99.90;;;;;;4915499;29;20331;-63
2021/12/01 10:49:00;;;;;;;3.90;3.60;;;8.40;99.90;;;;;;4916377;29;20258;-63
2021/12/01 10:51:37;;;;;;;4.13;3.83;;;8.40;99.90;;;;;;4916446;29;20331;-63
2021/12/01 10:54:15;;;;;;;4.03;3.70;;;8.40;99.90;;;;;;4915823;29;20306;-63
2021/12/01 10:56:43;;;;;;;4.07;3.77;;;8.40;99.90;;;;;;4905532;29;20240;-64
2021/12/01 10:59:12;;;;;;;3.70;3.40;;;8.40;99.90;;;;;;4921097;29;20240;-63
2021/12/01 11:01:40;;;;;;;3.57;3.37;;;8.40;99.90;;;;;;4909949;29;20267;-63
2021/12/01 11:04:09;;;;;;;3.67;3.37;;;8.50;99.90;;;;;;4908752;29;20259;-63
2021/12/01 11:06:43;;;;;;;4.00;3.70;;;8.50;99.90;;;;;;4915924;29;20323;-64
2021/12/01 11:09:14;;;;;;;3.57;3.27;;;8.50;99.90;;;;;;4908094;29;20582;-64
2021/12/01 11:11:44;;;;;;;4.00;3.70;;;8.50;99.90;;;;;;4912840;29;20649;-63
2021/12/01 11:14:41;;;;;;;3.47;3.17;;;8.50;99.90;;;;;;4907678;29;20243;-64
2021/12/01 11:17:13;;;;;;;3.37;3.07;;;8.50;99.90;;;;;;4915925;29;20299;-64
2021/12/01 11:19:41;;;;;;;2.90;2.70;;;8.60;99.90;;;;;;4914330;29;20328;-63
2021/12/01 11:22:30;;;;;;;3.30;3.00;;;8.60;99.90;;;;;;4903703;29;20244;-63
2021/12/01 11:25:20;;;;;;;5.03;3.77;;;8.60;99.90;;;;;;4905981;29;20330;-63
2021/12/01 11:27:49;;;;;;;3.23;2.90;;;8.60;99.90;;;;;;4906667;29;20247;-64
2021/12/01 11:30:19;;;;;;;4.50;2.93;;;8.60;99.90;;;;;;4914446;29;20240;-63
2021/12/01 11:33:10;;;;;;;3.70;2.73;;;8.60;99.90;;;;;;4903837;29;20259;-63
2021/12/01 11:35:39;;;;;;;3.80;3.37;;;8.60;99.90;;;;;;4906771;29;20240;-64
2021/12/01 11:38:09;;;;;;;5.30;4.60;;;8.70;99.90;;;;;;4908973;29;20303;-64
2021/12/01 11:40:38;;;;;;;4.50;4.10;;;8.70;99.90;;;;;;4906455;29;20236;-64
2021/12/01 11:43:09;;;;;;;3.80;3.50;;;8.70;99.90;;;;;;4909769;29;20331;-64
2021/12/01 11:45:38;;;;;;;4.10;3.70;;;8.70;99.90;;;;;;4910713;29;20248;-63
2021/12/01 11:48:10;;;;;;;3.77;3.47;;;8.80;99.90;;;;;;4911028;29;20324;-63
2021/12/01 11:50:47;;;;;;;3.97;3.57;;;8.90;99.90;;;;;;4911416;29;20263;-64
2021/12/01 11:53:22;;;;;;;3.80;2.90;;;8.90;99.90;;;;;;4915688;29;20327;-63
2021/12/01 11:55:57;;;;;;;2.97;2.30;;;8.90;99.90;;;;;;4914354;29;21122;-63
2021/12/01 11:58:45;;;;;;;3.00;2.53;;;8.90;99.90;;;;;;4913293;29;20244;-63
2021/12/01 12:01:37;;;;;;;2.83;2.23;;;8.90;99.90;;;;;;4914378;29;20231;-64
2021/12/01 12:04:22;;;;;;;2.00;1.80;;;9.00;99.90;;;;;;4911906;29;20688;-64
2021/12/01 12:06:53;;;;;;;3.23;2.23;;;8.90;99.90;;;;;;4911719;29;20275;-63
2021/12/01 12:09:23;;;;;;;3.60;2.20;;;9.00;99.90;;;;;;4912729;29;20237;-64
2021/12/01 12:11:54;;;;;;;3.90;1.80;;;9.00;99.90;;;;;;4905598;29;20244;-64
2021/12/01 12:14:24;;;;;;;2.63;2.07;;;9.00;99.90;;;;;;4905746;29;20299;-63
2021/12/01 12:17:07;;;;;;;3.63;2.10;;;9.00;99.90;;;;;;4905117;29;20327;-63
2021/12/01 12:19:58;;;;;;;2.20;2.00;;;9.00;99.90;;;;;;4905355;29;20248;-64
2021/12/01 12:22:33;;;;;;;2.47;1.70;;;9.00;99.90;;;;;;4902302;29;20248;-64
2021/12/01 12:25:02;;;;;;;4.63;1.60;;;9.00;99.90;;;;;;4910810;29;20298;-64
2021/12/01 12:27:40;;;;;;;2.73;1.27;;;9.00;99.90;;;;;;4909743;29;20796;-62
2021/12/01 12:30:13;;;;;;;2.93;1.73;;;9.00;99.90;;;;;;4902236;29;20299;-62
2021/12/01 12:32:43;;;;;;;2.80;1.30;;;9.00;99.90;;;;;;4901472;29;20431;-62
2021/12/01 12:35:13;;;;;;;3.70;1.30;;;9.00;99.90;;;;;;4911120;29;20342;-62
2021/12/01 12:37:43;;;;;;;2.73;1.40;;;8.90;99.90;;;;;;4914761;29;20336;-62
2021/12/01 12:40:29;;;;;;;1.17;1.07;;;8.90;99.90;;;;;;4912882;29;20238;-62
2021/12/01 12:43:11;;;;;;;3.03;1.80;;;8.90;99.90;;;;;;4913124;29;20761;-62
2021/12/01 12:45:43;;;;;;;4.03;1.50;;;8.90;99.90;;;;;;4910652;29;20236;-62
2021/12/01 12:48:24;;;;;;;3.03;1.40;;;8.90;99.90;;;;;;4906430;29;20512;-62
2021/12/01 12:51:21;;;;;;;4.40;1.30;;;8.90;99.90;;;;;;4910234;29;20236;-61
2021/12/01 12:54:16;;;;;;;6.50;1.60;;;8.90;99.90;;;;;;4898596;29;21093;-62
2021/12/01 12:56:54;;;;;;;6.73;1.87;;;8.90;99.90;;;;;;4905101;29;20254;-62
2021/12/01 12:59:31;;;;;;;3.47;0.97;;;8.90;99.90;;;;;;4904339;29;20346;-62
2021/12/01 13:02:33;;;;;;;6.23;1.10;;;8.90;99.90;;;;;;4906159;29;20243;-62
2021/12/01 13:05:05;;;;;;;3.23;0.90;;;8.90;99.90;;;;;;4907530;29;20613;-61
2021/12/01 13:07:48;;;;;;;5.30;1.27;;;8.90;99.90;;;;;;4895347;29;20319;-62
2021/12/01 13:10:22;;;;;;;4.17;1.23;;;9.00;99.90;;;;;;4899730;29;20330;-62
2021/12/01 13:12:58;;;;;;;3.67;1.30;;;9.00;99.90;;;;;;4910465;29;20365;-61
2021/12/01 13:15:31;;;;;;;2.57;0.80;;;8.90;99.90;;;;;;4906841;29;20319;-61
2021/12/01 13:18:01;;;;;;;4.53;0.70;;;8.90;99.90;;;;;;4903896;29;20703;-61
2021/12/01 13:20:33;;;;;;;2.37;0.77;;;8.90;99.90;;;;;;4910542;29;20315;-62